Time;durP1;ratioP1;P1;durP2;ratioP2;P2;SDS_P1;SDS_P2;PMS_P1;PMS_P2;Temp;Humidity;BMP_temperature;BMP_pressure;BME280_temperature;BME280_humidity;BME280_pressure;Samples;Min_cycle;Max_cycle;Signal;HPM_P1;HPM_P2
2023/09/05 04:33:13;;;;;;;;;5.50;5.50;;;;;33.00;33.25;101029.25;5017742;28;45223;-61
2023/09/05 04:35:38;;;;;;;;;6.75;6.75;;;;;32.96;33.41;101036.28;5019626;28;45121;-61
2023/09/05 04:38:04;;;;;;;;;5.25;5.25;;;;;32.89;33.14;101027.94;5019215;28;45150;-62
2023/09/05 04:40:29;;;;;;;;;7.75;6.00;;;;;32.90;32.71;101037.97;5018730;28;63636;-61
2023/09/05 04:42:54;;;;;;;;;6.00;5.50;;;;;32.89;33.55;101040.97;5017959;28;45308;-61
2023/09/05 04:45:20;;;;;;;;;8.25;6.75;;;;;32.93;33.38;101050.56;5019549;28;45385;-61
2023/09/05 04:47:45;;;;;;;;;5.50;5.50;;;;;32.87;33.50;101041.16;5018504;28;45548;-61
2023/09/05 04:50:10;;;;;;;;;11.00;7.00;;;;;32.88;32.97;101042.03;5018539;28;63608;-61
2023/09/05 04:52:36;;;;;;;;;8.00;6.00;;;;;32.84;33.13;101057.38;5017559;28;45668;-62
2023/09/05 04:55:02;;;;;;;;;5.00;5.00;;;;;32.88;33.22;101073.44;5019393;28;45336;-61
2023/09/05 04:57:28;;;;;;;;;6.25;6.25;;;;;32.88;32.79;101067.03;5017777;28;45401;-61
2023/09/05 04:59:57;;;;;;;;;7.50;6.75;;;;;32.88;32.90;101078.13;5018850;28;45473;-61
2023/09/05 05:02:26;;;;;;;;;8.50;8.50;;;;;32.88;33.31;101079.00;5018413;28;45367;-61
2023/09/05 05:04:53;;;;;;;;;9.25;6.25;;;;;32.88;33.34;101073.44;5018957;28;45506;-61
2023/09/05 05:07:18;;;;;;;;;8.25;7.00;;;;;32.92;33.29;101071.94;5017738;28;45450;-61
2023/09/05 05:09:46;;;;;;;;;6.00;6.00;;;;;32.90;33.22;101071.31;5018358;28;50989;-62
2023/09/05 05:12:11;;;;;;;;;6.00;6.00;;;;;32.83;33.37;101076.00;5018185;28;45372;-61
2023/09/05 05:14:37;;;;;;;;;7.00;7.00;;;;;32.82;33.49;101073.41;5019170;28;45374;-61
2023/09/05 05:17:03;;;;;;;;;6.75;6.75;;;;;32.77;33.88;101076.78;5018511;28;45245;-60
2023/09/05 05:19:29;;;;;;;;;6.00;6.00;;;;;32.78;33.23;101072.09;5017998;28;45401;-61
2023/09/05 05:21:55;;;;;;;;;5.75;5.75;;;;;32.76;33.68;101074.22;5016840;28;45511;-61
2023/09/05 05:24:20;;;;;;;;;8.50;7.50;;;;;32.84;33.38;101088.78;5018879;28;45326;-60
2023/09/05 05:26:46;;;;;;;;;7.00;6.50;;;;;32.82;33.62;101084.53;5018320;28;45238;-62
2023/09/05 05:29:12;;;;;;;;;8.25;8.25;;;;;32.83;33.49;101077.91;5018566;28;46759;-61
2023/09/05 05:31:39;;;;;;;;;5.25;5.25;;;;;32.73;33.38;101069.97;5023056;28;45322;-62
2023/09/05 05:34:04;;;;;;;;;6.25;6.25;;;;;32.83;33.58;101089.03;5038062;28;45250;-62
2023/09/05 05:36:30;;;;;;;;;5.50;5.50;;;;;32.73;33.76;101083.84;5036583;28;46993;-61
2023/09/05 05:38:56;;;;;;;;;7.00;6.00;;;;;32.75;33.99;101087.25;5036611;28;45514;-61
2023/09/05 05:41:21;;;;;;;;;6.25;6.25;;;;;32.74;33.73;101085.56;5037672;28;45441;-62
2023/09/05 05:43:47;;;;;;;;;8.25;7.75;;;;;32.73;33.40;101085.78;5038381;28;45265;-62
2023/09/05 05:46:14;;;;;;;;;6.75;6.75;;;;;32.72;33.38;101078.50;5038101;28;45252;-63
2023/09/05 05:48:40;;;;;;;;;8.50;7.00;;;;;32.68;33.72;101075.22;5038081;28;45478;-62
2023/09/05 05:51:06;;;;;;;;;9.00;7.75;;;;;32.69;33.98;101080.63;5037806;28;45344;-62
2023/09/05 05:53:32;;;;;;;;;9.25;8.25;;;;;32.72;33.71;101070.16;5037951;28;45402;-63
2023/09/05 05:55:58;;;;;;;;;7.00;7.00;;;;;32.78;33.43;101083.22;5037882;28;45341;-63
2023/09/05 05:58:23;;;;;;;;;5.25;5.25;;;;;32.75;33.78;101090.03;5037156;28;45404;-63
2023/09/05 06:00:51;;;;;;;;;6.00;6.00;;;;;32.70;33.62;101078.69;5019825;28;45439;-62
2023/09/05 06:03:17;;;;;;;;;6.25;6.25;;;;;32.82;34.02;101087.31;5038264;28;45320;-63
2023/09/05 06:05:44;;;;;;;;;7.00;6.00;;;;;32.85;33.97;101086.88;5036948;28;45569;-62
2023/09/05 06:08:09;;;;;;;;;7.25;7.25;;;;;32.85;33.96;101086.88;5037616;28;45397;-62
2023/09/05 06:10:35;;;;;;;;;7.50;7.25;;;;;32.92;33.69;101083.03;5050970;28;45357;-62
2023/09/05 06:13:00;;;;;;;;;7.00;7.00;;;;;32.90;33.88;101089.91;5036307;28;45324;-61
2023/09/05 06:15:25;;;;;;;;;6.00;5.50;;;;;32.92;33.49;101096.94;5036669;28;45293;-63
2023/09/05 06:17:51;;;;;;;;;6.75;6.75;;;;;32.68;33.32;101066.91;5037530;28;45419;-62
2023/09/05 06:20:16;;;;;;;;;7.75;7.75;;;;;32.80;33.32;101100.53;5040516;28;45727;-63
2023/09/05 06:22:42;;;;;;;;;7.50;7.00;;;;;32.82;33.95;101099.28;5041175;28;45451;-61
2023/09/05 06:25:07;;;;;;;;;6.00;6.00;;;;;32.86;33.90;101088.59;5041098;28;45408;-63
2023/09/05 06:27:33;;;;;;;;;9.50;8.00;;;;;32.89;33.61;101104.84;5041107;28;47313;-63
2023/09/05 06:29:58;;;;;;;;;6.00;6.00;;;;;32.82;33.17;101101.19;5041050;28;45383;-62
2023/09/05 06:32:23;;;;;;;;;7.25;7.00;;;;;32.89;33.34;101113.19;5040269;28;45402;-61
2023/09/05 06:34:50;;;;;;;;;6.25;6.25;;;;;32.93;33.70;101111.69;5040724;28;49263;-62
2023/09/05 06:37:16;;;;;;;;;6.25;6.25;;;;;32.95;33.67;101107.66;5041046;28;47132;-63
2023/09/05 06:39:41;;;;;;;;;6.00;6.00;;;;;32.95;33.75;101101.22;5040521;28;45513;-63
2023/09/05 06:42:08;;;;;;;;;7.50;7.00;;;;;32.98;33.24;101109.16;5040612;28;45386;-62
2023/09/05 06:44:33;;;;;;;;;8.00;8.00;;;;;32.97;33.84;101111.06;5040815;28;45363;-62
2023/09/05 06:46:58;;;;;;;;;5.00;5.00;;;;;33.00;33.59;101112.59;5040835;28;45296;-62
2023/09/05 06:49:24;;;;;;;;;7.25;7.25;;;;;33.05;33.25;101101.69;5040523;28;45423;-63
2023/09/05 06:51:49;;;;;;;;;6.75;6.00;;;;;33.12;33.72;101093.38;5040967;28;45344;-62
2023/09/05 06:54:14;;;;;;;;;5.50;5.25;;;;;33.17;33.30;101096.41;5040546;28;47917;-63
2023/09/05 06:56:40;;;;;;;;;5.75;5.50;;;;;33.12;33.69;101093.38;5039918;28;45355;-62
2023/09/05 06:59:17;;;;;;;;;9.00;6.75;;;;;33.21;33.31;101101.34;5040683;28;45425;-62
2023/09/05 07:01:45;;;;;;;;;6.25;6.00;;;;;33.24;33.23;101092.59;5040970;28;45403;-62
2023/09/05 07:04:11;;;;;;;;;7.75;7.75;;;;;33.25;32.85;101097.09;5040098;28;45458;-63
2023/09/05 07:06:37;;;;;;;;;7.25;6.50;;;;;33.29;33.32;101109.50;5040664;28;45339;-62
2023/09/05 07:09:03;;;;;;;;;7.75;6.75;;;;;33.32;33.69;101106.31;5040347;28;45327;-62
2023/09/05 07:11:28;;;;;;;;;9.25;8.25;;;;;33.42;33.19;101106.75;5040598;28;45327;-63
2023/09/05 07:13:54;;;;;;;;;8.50;5.75;;;;;33.42;33.17;101098.41;5039580;28;45386;-63
2023/09/05 07:16:19;;;;;;;;;10.00;9.50;;;;;33.43;33.18;101102.06;5040366;28;45415;-63
2023/09/05 07:18:45;;;;;;;;;4.50;4.50;;;;;33.51;33.11;101107.41;5022188;28;51197;-63
2023/09/05 07:21:10;;;;;;;;;8.75;6.00;;;;;33.54;33.05;101097.78;5040668;28;45454;-63
2023/09/05 07:23:36;;;;;;;;;6.00;6.00;;;;;33.58;33.21;101115.75;5039937;28;45349;-63
2023/09/05 07:26:06;;;;;;;;;6.50;6.50;;;;;33.59;33.30;101121.13;5022460;28;46281;-63
2023/09/05 07:28:31;;;;;;;;;6.50;6.00;;;;;33.55;33.50;101107.84;5022181;28;45478;-62
2023/09/05 07:30:56;;;;;;;;;10.25;8.75;;;;;33.65;33.09;101117.47;5040007;28;45358;-62
2023/09/05 07:33:22;;;;;;;;;10.00;10.00;;;;;33.56;32.92;101109.53;5040030;28;45166;-62
2023/09/05 07:35:47;;;;;;;;;10.75;8.00;;;;;33.58;33.50;101124.09;5022559;28;46235;-61
2023/09/05 07:38:14;;;;;;;;;7.50;7.50;;;;;33.53;33.42;101109.97;5039788;28;45331;-62
2023/09/05 07:40:40;;;;;;;;;7.25;7.25;;;;;33.60;33.17;101110.84;5040401;28;45260;-63
2023/09/05 07:43:05;;;;;;;;;7.00;7.00;;;;;33.59;32.97;101104.44;5039990;28;45645;-62
2023/09/05 07:45:32;;;;;;;;;6.75;6.75;;;;;33.51;33.21;101092.66;5039922;28;45369;-63
2023/09/05 07:47:57;;;;;;;;;8.75;8.75;;;;;33.42;33.30;101103.13;5039917;28;45308;-63
2023/09/05 07:50:23;;;;;;;;;6.25;6.25;;;;;33.43;33.80;101107.63;5040109;28;45367;-61
2023/09/05 07:52:49;;;;;;;;;7.50;6.25;;;;;33.44;33.27;101110.16;5039698;28;45532;-62
2023/09/05 07:55:15;;;;;;;;;9.75;8.50;;;;;33.46;33.22;101109.97;5022196;28;48034;-62
2023/09/05 07:57:41;;;;;;;;;7.75;7.75;;;;;33.53;33.52;101118.31;5039817;28;45348;-62
2023/09/05 08:00:11;;;;;;;;;7.75;7.25;;;;;33.57;33.47;101109.34;5040113;28;45339;-63
2023/09/05 08:02:36;;;;;;;;;8.75;8.75;;;;;33.60;33.30;101106.13;5038741;28;45289;-62
2023/09/05 08:05:04;;;;;;;;;8.00;8.00;;;;;33.51;33.33;101117.69;5039476;28;46173;-61
2023/09/05 08:07:30;;;;;;;;;6.00;6.00;;;;;33.52;33.24;101122.19;5038845;28;45278;-62
2023/09/05 08:09:55;;;;;;;;;11.00;7.75;;;;;33.59;33.51;101121.13;5039093;28;45492;-62
2023/09/05 08:12:21;;;;;;;;;10.25;7.50;;;;;33.58;32.93;101110.19;5038869;28;45308;-62
2023/09/05 08:14:46;;;;;;;;;7.25;7.00;;;;;33.65;33.32;101123.03;5038756;28;45413;-64
2023/09/05 08:17:11;;;;;;;;;6.00;6.00;;;;;33.67;33.10;101118.13;5034266;28;49607;-64
2023/09/05 08:19:37;;;;;;;;;7.00;7.00;;;;;33.75;33.57;101120.72;5039034;28;45364;-62
2023/09/05 08:22:02;;;;;;;;;6.00;6.00;;;;;33.76;33.44;101125.22;5038287;28;52511;-63
2023/09/05 08:24:28;;;;;;;;;9.75;8.75;;;;;33.64;32.98;101112.97;5038686;28;46012;-61
2023/09/05 08:26:53;;;;;;;;;7.00;7.00;;;;;33.70;33.23;101123.25;5038809;28;45249;-65
2023/09/05 08:29:19;;;;;;;;;6.50;6.50;;;;;33.68;33.78;101119.84;5038808;28;45785;-62
2023/09/05 08:31:45;;;;;;;;;7.00;7.00;;;;;33.81;33.50;101121.78;5039149;28;46083;-62
2023/09/05 08:34:10;;;;;;;;;7.00;7.00;;;;;33.88;33.49;101125.44;5038455;28;45326;-63
2023/09/05 08:36:35;;;;;;;;;9.25;8.75;;;;;33.83;33.14;101124.38;5020791;28;45297;-61
2023/09/05 08:39:01;;;;;;;;;8.25;8.25;;;;;33.91;33.20;101138.06;5039426;28;45327;-63
2023/09/05 08:41:27;;;;;;;;;7.00;7.00;;;;;34.01;33.01;101114.31;5038416;28;45540;-63
2023/09/05 08:43:53;;;;;;;;;6.75;6.75;;;;;34.05;33.14;101126.72;5038732;28;45408;-63
2023/09/05 08:46:19;;;;;;;;;8.75;8.75;;;;;34.03;33.57;101123.28;5038182;28;45375;-62
2023/09/05 08:48:44;;;;;;;;;6.75;6.75;;;;;34.13;33.37;101131.19;5038135;28;45463;-62
2023/09/05 08:51:14;;;;;;;;;8.50;7.00;;;;;34.11;33.69;101128.63;5038695;28;45367;-61
2023/09/05 08:53:56;;;;;;;;;6.50;6.50;;;;;34.17;33.29;101135.28;5038508;28;45296;-60
2023/09/05 08:56:21;;;;;;;;;9.25;8.75;;;;;34.13;33.34;101123.72;5038921;28;45253;-60
2023/09/05 08:58:47;;;;;;;;;10.00;9.00;;;;;34.21;33.18;101144.91;5038741;28;45887;-60
2023/09/05 09:01:13;;;;;;;;;9.00;7.75;;;;;34.20;33.89;101136.78;5038846;28;45391;-60
2023/09/05 09:03:38;;;;;;;;;9.00;6.75;;;;;34.15;33.06;101138.28;5038263;28;46223;-60
2023/09/05 09:06:03;;;;;;;;;9.50;9.50;;;;;34.21;33.40;101144.03;5038401;28;52033;-60
2023/09/05 09:08:41;;;;;;;;;8.75;8.75;;;;;34.23;33.09;101139.97;5038234;28;45345;-60
2023/09/05 09:11:08;;;;;;;;;11.75;10.00;;;;;34.27;33.09;101140.44;5038110;28;45446;-59
2023/09/05 09:13:33;;;;;;;;;6.75;6.75;;;;;34.32;33.23;101137.84;5038188;28;45632;-60
2023/09/05 09:16:00;;;;;;;;;7.25;7.00;;;;;34.28;33.35;101142.16;5032260;28;45415;-59
2023/09/05 09:18:26;;;;;;;;;7.00;7.00;;;;;34.34;33.35;101141.28;5035017;28;45359;-60
2023/09/05 09:20:52;;;;;;;;;10.00;7.00;;;;;34.39;33.95;101142.34;5036991;28;45413;-60
2023/09/05 09:23:28;;;;;;;;;7.00;6.00;;;;;34.42;33.13;101135.50;5037134;28;46272;-59
2023/09/05 09:25:55;;;;;;;;;10.50;7.75;;;;;34.55;33.35;101135.44;5035942;28;45336;-60
2023/09/05 09:28:32;;;;;;;;;8.25;7.75;;;;;34.61;33.17;101140.16;5038988;28;44713;-61
2023/09/05 09:31:02;;;;;;;;;7.50;7.25;;;;;34.65;33.20;101138.63;5036306;28;45324;-59
2023/09/05 09:33:29;;;;;;;;;10.25;10.25;;;;;34.71;33.36;101137.75;5037126;28;45522;-59
2023/09/05 09:36:01;;;;;;;;;10.25;9.25;;;;;34.73;33.77;101135.66;5037693;28;45349;-60
2023/09/05 09:38:28;;;;;;;;;9.75;8.50;;;;;34.82;33.54;101136.25;5023341;28;45374;-60
2023/09/05 09:40:55;;;;;;;;;9.75;7.00;;;;;34.82;32.99;101148.25;5037616;28;45455;-59
2023/09/05 09:43:21;;;;;;;;;9.00;9.00;;;;;34.89;33.83;101132.38;5019597;28;46453;-59
2023/09/05 09:45:46;;;;;;;;;9.75;8.75;;;;;34.95;33.14;101130.66;5019892;28;45457;-59
2023/09/05 09:48:15;;;;;;;;;6.25;5.50;;;;;34.99;32.97;101126.34;5036985;28;45437;-60
2023/09/05 09:50:43;;;;;;;;;9.75;9.75;;;;;34.95;32.82;101133.44;5037821;28;45429;-59
2023/09/05 09:53:12;;;;;;;;;8.75;8.75;;;;;34.86;33.30;101112.47;5038555;28;45341;-60
2023/09/05 09:55:43;;;;;;;;;11.25;9.75;;;;;35.12;32.85;101131.88;5041154;28;45515;-61
2023/09/05 09:58:18;;;;;;;;;10.25;9.00;;;;;35.17;33.42;101118.09;5041644;28;45321;-59
2023/09/05 10:00:47;;;;;;;;;9.25;9.25;;;;;35.19;32.83;101118.75;5038259;28;45498;-60
2023/09/05 10:03:13;;;;;;;;;11.75;9.50;;;;;35.35;32.80;101128.53;5041092;28;46059;-60
2023/09/05 10:05:41;;;;;;;;;8.50;8.00;;;;;35.47;32.49;101115.63;5040913;28;45391;-59
2023/09/05 10:08:09;;;;;;;;;7.00;7.00;;;;;35.38;32.62;101113.31;5040875;28;45308;-60
2023/09/05 10:10:38;;;;;;;;;8.25;6.75;;;;;35.44;32.72;101104.91;5040712;28;46089;-60
2023/09/05 10:13:06;;;;;;;;;8.00;8.00;;;;;35.48;31.95;101108.94;5038328;28;45460;-59
2023/09/05 10:15:32;;;;;;;;;9.75;8.00;;;;;35.60;32.36;101109.94;5040177;28;45486;-60
2023/09/05 10:17:58;;;;;;;;;9.00;9.00;;;;;35.62;32.27;101104.13;5041007;28;45368;-61
2023/09/05 10:20:25;;;;;;;;;7.50;7.00;;;;;35.72;32.14;101109.25;5040783;28;45307;-59
2023/09/05 10:22:53;;;;;;;;;8.00;8.00;;;;;35.79;31.75;101104.47;5040406;28;46504;-60
2023/09/05 10:25:20;;;;;;;;;8.00;8.00;;;;;35.75;32.40;101097.59;5022797;28;45392;-60
2023/09/05 10:27:45;;;;;;;;;7.50;7.50;;;;;35.85;32.21;101104.41;5040939;28;45435;-61
2023/09/05 10:30:11;;;;;;;;;10.25;8.00;;;;;35.93;31.62;101106.91;5040545;28;45517;-60
2023/09/05 10:32:41;;;;;;;;;10.50;8.25;;;;;35.95;31.75;101103.88;5040345;28;46315;-60
2023/09/05 10:35:07;;;;;;;;;7.50;7.50;;;;;36.16;31.76;101108.19;5040954;28;46241;-61
2023/09/05 10:37:32;;;;;;;;;10.25;7.50;;;;;36.16;31.39;101108.19;5040980;28;45411;-60
2023/09/05 10:40:07;;;;;;;;;9.50;9.50;;;;;36.16;31.19;101099.81;5040266;28;45400;-61
2023/09/05 10:42:34;;;;;;;;;7.25;7.25;;;;;36.22;31.07;101097.00;5040841;28;46984;-61
2023/09/05 10:45:16;;;;;;;;;9.00;7.00;;;;;36.45;30.79;101101.91;5040841;28;45383;-61
2023/09/05 10:47:42;;;;;;;;;8.25;7.00;;;;;36.34;31.22;101091.50;5041152;28;45458;-60
2023/09/05 10:50:09;;;;;;;;;8.25;8.25;;;;;36.31;30.55;101078.88;5041131;28;45362;-61
2023/09/05 10:52:35;;;;;;;;;9.75;9.75;;;;;36.31;30.91;101092.84;5039620;28;45447;-61
2023/09/05 10:55:29;;;;;;;;;10.75;9.25;;;;;36.36;30.25;101087.41;5040755;28;45452;-62
2023/09/05 10:57:56;;;;;;;;;7.75;7.75;;;;;36.46;30.14;101084.06;5040171;28;45654;-62
2023/09/05 11:00:23;;;;;;;;;8.25;7.00;;;;;36.55;29.96;101090.19;5040745;28;45355;-60
2023/09/05 11:02:49;;;;;;;;;13.25;9.00;;;;;36.65;28.85;101085.78;5040752;28;47220;-62
2023/09/05 11:05:19;;;;;;;;;7.75;7.75;;;;;36.74;29.56;101077.97;5040161;28;45519;-60
2023/09/05 11:07:50;;;;;;;;;8.00;6.50;;;;;36.77;29.59;101088.66;5040362;28;45336;-62
2023/09/05 11:10:34;;;;;;;;;8.00;7.25;;;;;36.87;29.01;101086.19;5039999;28;45451;-61
2023/09/05 11:13:12;;;;;;;;;7.75;7.00;;;;;37.03;28.28;101091.13;5040253;28;47159;-60
2023/09/05 11:15:39;;;;;;;;;7.00;7.00;;;;;37.04;27.68;101101.22;5040268;28;45326;-60
2023/09/05 11:18:06;;;;;;;;;8.00;7.00;;;;;37.11;27.54;101095.53;5040571;28;45375;-60
2023/09/05 11:20:50;;;;;;;;;8.50;7.00;;;;;37.10;27.45;101091.88;5040554;28;45335;-61
2023/09/05 11:23:25;;;;;;;;;9.00;7.75;;;;;37.22;27.87;101100.34;5039595;28;45398;-61
2023/09/05 11:26:03;;;;;;;;;6.50;6.25;;;;;37.39;27.09;101089.34;5023040;28;45429;-60
2023/09/05 11:28:29;;;;;;;;;9.50;7.50;;;;;37.50;26.90;101095.00;5039797;28;45348;-60
2023/09/05 11:30:57;;;;;;;;;8.75;7.75;;;;;37.51;26.68;101087.44;5039990;28;45265;-61
2023/09/05 11:33:24;;;;;;;;;9.00;7.75;;;;;37.61;26.27;101092.47;5038641;28;45399;-61
2023/09/05 11:35:49;;;;;;;;;6.00;6.00;;;;;37.63;26.75;101085.53;5038970;28;45412;-60
2023/09/05 11:38:16;;;;;;;;;8.50;8.50;;;;;37.77;26.30;101089.00;5039138;28;45380;-60
2023/09/05 11:40:54;;;;;;;;;8.00;8.00;;;;;37.87;26.26;101092.03;5039824;28;45372;-60
2023/09/05 11:43:24;;;;;;;;;7.25;6.00;;;;;37.98;26.33;101081.94;5039411;28;45339;-58
2023/09/05 11:45:54;;;;;;;;;7.75;6.75;;;;;38.03;26.44;101082.91;5039554;28;45442;-60
2023/09/05 11:48:23;;;;;;;;;6.00;6.00;;;;;38.08;25.67;101085.88;5039984;28;45187;-60
2023/09/05 11:50:49;;;;;;;;;8.75;7.00;;;;;38.13;25.58;101082.34;5039415;28;45411;-60
2023/09/05 11:53:18;;;;;;;;;7.25;7.25;;;;;38.22;25.54;101087.34;5039372;28;46157;-60
2023/09/05 11:55:44;;;;;;;;;9.25;8.50;;;;;38.24;25.94;101078.69;5039739;28;45475;-60
2023/09/05 11:58:11;;;;;;;;;6.25;6.25;;;;;38.39;25.63;101086.59;5039889;28;45540;-60
2023/09/05 12:00:50;;;;;;;;;8.00;8.00;;;;;38.51;25.53;101077.13;5021538;28;45568;-61
2023/09/05 12:03:17;;;;;;;;;8.00;6.75;;;;;38.58;25.50;101075.03;5039607;28;46089;-60
2023/09/05 12:05:45;;;;;;;;;9.25;8.00;;;;;38.74;25.82;101078.16;5039511;28;45371;-60
2023/09/05 12:08:10;;;;;;;;;7.00;6.25;;;;;38.81;25.41;101076.03;5039481;28;45355;-60
2023/09/05 12:10:41;;;;;;;;;7.00;6.25;;;;;38.92;25.05;101080.78;5039289;28;45552;-60
2023/09/05 12:13:08;;;;;;;;;8.00;8.00;;;;;38.98;24.65;101077.00;5039509;28;46429;-60
2023/09/05 12:15:35;;;;;;;;;7.00;7.00;;;;;39.11;23.99;101068.31;5039304;28;45385;-60
2023/09/05 12:18:05;;;;;;;;;5.75;5.75;;;;;39.20;24.51;101065.94;5038686;28;45206;-60
2023/09/05 12:20:35;;;;;;;;;6.00;6.00;;;;;39.45;23.88;101060.84;5038751;28;45479;-60
2023/09/05 12:23:02;;;;;;;;;6.00;4.50;;;;;39.47;23.02;101066.19;5038748;28;45358;-60
2023/09/05 12:25:28;;;;;;;;;6.00;6.00;;;;;39.51;21.60;101073.84;5039674;28;45307;-60
2023/09/05 12:27:55;;;;;;;;;5.00;5.00;;;;;39.66;22.75;101067.63;5039534;28;45464;-59
2023/09/05 12:30:29;;;;;;;;;7.50;7.50;;;;;39.83;22.84;101064.88;5039728;28;45370;-61
2023/09/05 12:33:04;;;;;;;;;8.50;6.75;;;;;39.92;22.48;101063.34;5038927;28;46451;-61
2023/09/05 12:35:31;;;;;;;;;5.00;5.00;;;;;40.00;22.41;101068.50;5039611;28;45390;-59
2023/09/05 12:37:59;;;;;;;;;7.75;7.75;;;;;40.10;22.68;101071.47;5038877;28;45931;-59
2023/09/05 12:40:26;;;;;;;;;8.50;7.00;;;;;40.25;22.84;101071.75;5039368;28;45391;-60
2023/09/05 12:42:52;;;;;;;;;6.00;6.00;;;;;40.29;22.41;101072.09;5037697;28;45331;-60
2023/09/05 12:45:18;;;;;;;;;7.00;5.50;;;;;40.23;21.71;101047.81;5038850;28;45259;-60
2023/09/05 12:47:49;;;;;;;;;6.00;6.00;;;;;40.42;21.62;101068.88;5036369;28;45356;-60
2023/09/05 12:50:15;;;;;;;;;3.75;3.75;;;;;40.51;22.02;101078.56;5038457;28;45516;-59
2023/09/05 12:52:44;;;;;;;;;6.25;6.00;;;;;40.62;22.39;101068.31;5037659;28;46332;-60
2023/09/05 12:55:11;;;;;;;;;8.25;6.25;;;;;40.55;21.25;101067.69;5038496;28;45465;-60
2023/09/05 12:57:41;;;;;;;;;7.25;6.00;;;;;40.54;21.26;101077.22;5038315;28;45523;-59
2023/09/05 13:00:10;;;;;;;;;6.50;5.00;;;;;40.65;21.67;101068.66;5035936;28;45465;-61
2023/09/05 13:02:36;;;;;;;;;6.75;6.75;;;;;40.74;22.32;101055.03;5038184;28;46069;-61
2023/09/05 13:05:01;;;;;;;;;7.25;6.25;;;;;40.89;22.28;101054.34;5037227;28;45411;-60
2023/09/05 13:07:26;;;;;;;;;7.75;6.00;;;;;40.93;21.56;101047.06;5038056;28;45389;-60
2023/09/05 13:09:53;;;;;;;;;5.50;5.25;;;;;41.16;21.58;101061.75;5038408;28;45430;-60
2023/09/05 13:12:19;;;;;;;;;7.25;6.25;;;;;41.32;21.72;101062.75;5037582;28;46668;-60
2023/09/05 13:14:45;;;;;;;;;6.00;6.00;;;;;41.49;21.22;101059.81;5038728;28;45347;-59
2023/09/05 13:17:11;;;;;;;;;6.50;6.50;;;;;41.74;21.53;101053.59;5038296;28;45257;-60
2023/09/05 13:19:36;;;;;;;;;4.50;4.00;;;;;41.84;20.96;101050.84;5038832;28;45454;-60
2023/09/05 13:22:02;;;;;;;;;8.00;6.00;;;;;41.84;21.71;101051.69;5037763;28;60583;-60
2023/09/05 13:24:27;;;;;;;;;5.75;5.75;;;;;41.88;20.78;101044.41;5038185;28;45344;-61
2023/09/05 13:26:54;;;;;;;;;7.75;6.00;;;;;41.97;20.95;101055.19;5038787;28;45277;-59
2023/09/05 13:29:19;;;;;;;;;4.75;4.25;;;;;42.00;20.29;101049.03;5038541;28;45409;-59
2023/09/05 13:31:45;;;;;;;;;1.75;0.00;;;;;42.01;20.55;101043.13;5038167;28;45742;-60
2023/09/05 13:34:10;;;;;;;;;3.25;3.25;;;;;42.11;20.52;101047.97;5038531;28;47397;-60
2023/09/05 13:36:35;;;;;;;;;6.50;5.50;;;;;42.18;19.79;101049.44;5037908;28;45314;-60
2023/09/05 13:39:01;;;;;;;;;11.00;4.50;;;;;42.25;19.64;101041.56;5020585;28;45320;-60
2023/09/05 13:41:28;;;;;;;;;6.00;4.25;;;;;42.40;17.57;101042.81;5038419;28;48287;-60
2023/09/05 13:43:53;;;;;;;;;3.75;3.00;;;;;42.49;18.09;101039.19;5037912;28;45276;-61
2023/09/05 13:46:19;;;;;;;;;4.25;4.25;;;;;42.55;17.18;101040.91;5038120;28;50754;-60
2023/09/05 13:48:46;;;;;;;;;4.50;1.75;;;;;42.60;17.67;101051.38;5037704;28;45483;-61
2023/09/05 13:51:11;;;;;;;;;3.25;3.25;;;;;42.74;17.40;101049.72;5037407;28;46612;-60
2023/09/05 13:53:36;;;;;;;;;3.25;3.25;;;;;42.89;17.92;101046.13;5037644;28;45286;-61
2023/09/05 13:56:02;;;;;;;;;3.00;3.00;;;;;43.02;18.05;101037.16;5038147;28;53382;-60
2023/09/05 13:58:28;;;;;;;;;4.75;3.50;;;;;43.05;17.38;101038.59;5020826;28;45316;-61
2023/09/05 14:00:53;;;;;;;;;4.00;4.00;;;;;43.07;17.75;101031.50;5037698;28;45399;-60
2023/09/05 14:03:19;;;;;;;;;4.50;4.50;;;;;43.17;16.99;101020.28;5037862;28;45245;-60
2023/09/05 14:05:44;;;;;;;;;5.00;4.25;;;;;43.26;17.32;101026.22;5037936;28;45307;-61
2023/09/05 14:08:09;;;;;;;;;3.50;3.50;;;;;43.30;16.50;101027.38;5037932;28;45363;-61
2023/09/05 14:10:35;;;;;;;;;3.25;3.25;;;;;43.36;16.90;101032.72;5045041;28;51488;-60
2023/09/05 14:13:00;;;;;;;;;5.00;4.25;;;;;43.42;16.69;101024.25;5037790;28;45467;-60
2023/09/05 14:15:26;;;;;;;;;5.00;4.00;;;;;43.52;16.75;101027.94;5037703;28;45254;-60
2023/09/05 14:17:51;;;;;;;;;4.67;4.67;;;;;43.66;16.13;101023.44;5037751;28;45551;-60
2023/09/05 14:20:16;;;;;;;;;4.50;4.50;;;;;43.68;16.64;101023.16;5037878;28;45359;-61
2023/09/05 14:22:42;;;;;;;;;5.75;5.75;;;;;43.83;16.24;101023.13;5037815;28;45382;-60
2023/09/05 14:25:07;;;;;;;;;4.75;3.50;;;;;43.90;16.47;101025.69;5038121;28;45431;-60
2023/09/05 14:27:32;;;;;;;;;5.00;5.00;;;;;43.96;16.55;101018.94;5038266;28;45367;-60
2023/09/05 14:29:58;;;;;;;;;3.75;3.75;;;;;44.00;15.59;101015.22;5019522;28;45388;-60
2023/09/05 14:32:23;;;;;;;;;8.00;5.00;;;;;44.18;16.04;101027.06;5037912;28;53399;-61
2023/09/05 14:34:55;;;;;;;;;4.00;3.00;;;;;44.23;15.81;101018.56;5037097;28;45422;-60
2023/09/05 14:37:20;;;;;;;;;5.75;5.75;;;;;44.23;16.05;101015.75;5036306;28;46517;-60
2023/09/05 14:39:46;;;;;;;;;4.00;4.00;;;;;44.33;16.16;101022.22;5036902;28;46340;-60
2023/09/05 14:42:11;;;;;;;;;3.50;3.50;;;;;44.31;14.79;101016.00;5040430;28;50442;-61
2023/09/05 14:44:36;;;;;;;;;7.75;5.25;;;;;44.30;16.00;101017.13;5022717;28;45376;-61
2023/09/05 14:47:05;;;;;;;;;3.25;3.25;;;;;44.30;15.88;101010.63;5040739;28;45557;-60
2023/09/05 14:49:31;;;;;;;;;5.75;4.00;;;;;44.39;15.70;101018.28;5039968;28;47049;-60
2023/09/05 14:51:57;;;;;;;;;3.25;3.25;;;;;44.35;14.56;101019.97;5040247;28;45361;-61
2023/09/05 14:54:22;;;;;;;;;3.75;2.00;;;;;44.38;15.21;101019.41;5040100;28;46481;-60
2023/09/05 14:56:50;;;;;;;;;4.00;4.00;;;;;44.54;14.62;101017.34;5040841;28;45311;-61
2023/09/05 14:59:16;;;;;;;;;2.75;2.75;;;;;44.61;15.00;101008.53;5039744;28;45332;-60
2023/09/05 15:01:43;;;;;;;;;4.75;3.00;;;;;44.65;14.55;101012.50;5040286;28;45399;-61
2023/09/05 15:04:11;;;;;;;;;4.00;3.25;;;;;44.73;14.37;101009.94;5040835;28;45364;-61
2023/09/05 15:06:36;;;;;;;;;3.25;2.75;;;;;44.71;13.60;101015.00;5040453;28;45474;-60
2023/09/05 15:09:02;;;;;;;;;3.00;3.00;;;;;44.74;13.75;101020.13;5040040;28;45307;-60
2023/09/05 15:11:27;;;;;;;;;4.00;2.75;;;;;44.86;14.02;101011.25;5030351;28;45717;-60
2023/09/05 15:13:52;;;;;;;;;3.25;3.25;;;;;44.93;14.62;101014.63;5039993;28;53334;-60
2023/09/05 15:16:19;;;;;;;;;6.00;3.25;;;;;45.06;14.39;101015.97;5040451;28;45455;-59
2023/09/05 15:18:45;;;;;;;;;4.00;4.00;;;;;45.08;14.92;101014.53;5040319;28;45310;-58
2023/09/05 15:21:11;;;;;;;;;2.25;2.25;;;;;45.03;14.41;101008.91;5040220;28;45500;-61
2023/09/05 15:23:36;;;;;;;;;3.00;3.00;;;;;44.95;13.69;101008.66;5040212;28;45447;-61
2023/09/05 15:26:04;;;;;;;;;3.75;3.25;;;;;44.88;13.34;100996.84;5040664;28;45551;-61
2023/09/05 15:28:30;;;;;;;;;3.75;3.25;;;;;44.70;14.19;100999.16;5039738;28;45999;-60
2023/09/05 15:30:55;;;;;;;;;3.00;3.00;;;;;44.81;14.63;101002.81;5040160;28;45308;-62
2023/09/05 15:33:21;;;;;;;;;5.00;4.00;;;;;45.06;14.52;101004.63;5040466;28;45595;-61
2023/09/05 15:35:47;;;;;;;;;3.75;3.25;;;;;45.09;14.00;101006.91;5040233;28;45376;-60
2023/09/05 15:38:12;;;;;;;;;4.50;4.00;;;;;45.10;14.08;101008.59;5038170;28;46135;-61
2023/09/05 15:40:40;;;;;;;;;1.75;1.75;;;;;45.06;13.52;101007.47;5040307;28;45308;-60
2023/09/05 15:43:05;;;;;;;;;3.25;3.25;;;;;44.95;13.37;101006.69;5039509;28;45473;-60
2023/09/05 15:45:31;;;;;;;;;2.25;2.25;;;;;45.07;14.18;101003.50;5040200;28;45347;-60
2023/09/05 15:47:56;;;;;;;;;3.75;3.50;;;;;45.10;14.57;101000.94;5038826;28;45966;-61
2023/09/05 15:50:21;;;;;;;;;7.00;5.50;;;;;45.27;13.69;101003.38;5040306;28;45304;-60
2023/09/05 15:52:47;;;;;;;;;4.25;4.25;;;;;45.22;14.04;101004.25;5039766;28;45377;-60
2023/09/05 15:55:13;;;;;;;;;4.00;4.00;;;;;45.22;13.88;101012.75;5040112;28;45370;-59